RYR62HE EPKK-GCTS
Flight info
| Callsign | RYR62HE |
|---|---|
| Flight time | N/A |
| Altitude | 34000 |
| Route | TUSI4F TUSIN DCT MIKOV DCT DETSA/N0443F350 DCT GEKBA DCT VAMTU DCT KOLON DCT GANGU DCT PADKO DCT DIVKO DCT NILDU DCT NENDA N975 BCN M985 PIMOS N869 GALTO UN869 MABAP DCT RUSIK RUSI1G |
| Aircraft | B738/M-SDE2E3FGHIRWXY/LB1 |
Departure
| Time | 2026-04-30 10:23 |
|---|---|
| Airport | Kraków John Paul II International Airport (EPKK) |
Arrival
| Time | N/A |
|---|---|
| Airport | Tenerife Sur Airport (GCTS) |
| Time | Latitude | Longitude | Altitude | Speed | Heading |
|---|---|---|---|---|---|
| 2026-04-30 08:48 | 50.07315 | 19.79918 | 799 ft | 0 kts | 167° |
| 2026-04-30 10:02 | 50.07316 | 19.79918 | 799 ft | 0 kts | 167° |
| 2026-04-30 10:09 | 50.07319 | 19.79917 | 799 ft | 3 kts | 166° |
| 2026-04-30 10:09 | 50.07338 | 19.79898 | 799 ft | 4 kts | 137° |
| 2026-04-30 10:09 | 50.07356 | 19.79877 | 799 ft | 4 kts | 136° |
| 2026-04-30 10:09 | 50.07369 | 19.79845 | 799 ft | 4 kts | 96° |
| 2026-04-30 10:10 | 50.07368 | 19.79809 | 799 ft | 1 kts | 77° |
| 2026-04-30 10:10 | 50.07367 | 19.79803 | 799 ft | 2 kts | 77° |
| 2026-04-30 10:12 | 50.07368 | 19.79804 | 799 ft | 1 kts | 73° |
| 2026-04-30 10:12 | 50.07375 | 19.79805 | 799 ft | 1 kts | 349° |
| 2026-04-30 10:13 | 50.07397 | 19.79792 | 799 ft | 5 kts | 340° |
| 2026-04-30 10:13 | 50.07441 | 19.79769 | 799 ft | 8 kts | 346° |
| 2026-04-30 10:13 | 50.07504 | 19.79747 | 799 ft | 10 kts | 348° |
| 2026-04-30 10:13 | 50.07572 | 19.79725 | 799 ft | 10 kts | 348° |
| 2026-04-30 10:14 | 50.07611 | 19.79713 | 799 ft | 6 kts | 348° |
| 2026-04-30 10:14 | 50.07650 | 19.79700 | 799 ft | 6 kts | 346° |
| 2026-04-30 10:14 | 50.07666 | 19.79534 | 799 ft | 12 kts | 258° |
| 2026-04-30 10:15 | 50.07646 | 19.79392 | 799 ft | 15 kts | 258° |
| 2026-04-30 10:15 | 50.07623 | 19.79221 | 799 ft | 17 kts | 258° |
| 2026-04-30 10:15 | 50.07596 | 19.79023 | 799 ft | 20 kts | 258° |
| 2026-04-30 10:15 | 50.07566 | 19.78808 | 799 ft | 20 kts | 258° |
| 2026-04-30 10:16 | 50.07537 | 19.78597 | 799 ft | 20 kts | 258° |
| 2026-04-30 10:16 | 50.07508 | 19.78393 | 799 ft | 19 kts | 258° |
| 2026-04-30 10:16 | 50.07481 | 19.78196 | 799 ft | 18 kts | 258° |
| 2026-04-30 10:17 | 50.07429 | 19.77821 | 799 ft | 17 kts | 258° |
| 2026-04-30 10:17 | 50.07381 | 19.77473 | 799 ft | 16 kts | 258° |
| 2026-04-30 10:17 | 50.07359 | 19.77309 | 799 ft | 15 kts | 258° |
| 2026-04-30 10:18 | 50.07337 | 19.77151 | 799 ft | 15 kts | 258° |
| 2026-04-30 10:18 | 50.07317 | 19.77000 | 799 ft | 14 kts | 258° |
| 2026-04-30 10:18 | 50.07308 | 19.76918 | 799 ft | 3 kts | 278° |
| 2026-04-30 10:19 | 50.07351 | 19.76888 | 799 ft | 4 kts | 347° |
| 2026-04-30 10:19 | 50.07384 | 19.76876 | 799 ft | 5 kts | 348° |
| 2026-04-30 10:19 | 50.07419 | 19.76865 | 799 ft | 5 kts | 348° |
| 2026-04-30 10:19 | 50.07441 | 19.76857 | 799 ft | 0 kts | 348° |
| 2026-04-30 10:21 | 50.07448 | 19.76855 | 799 ft | 3 kts | 348° |
| 2026-04-30 10:21 | 50.07481 | 19.76844 | 800 ft | 6 kts | 348° |
| 2026-04-30 10:21 | 50.07520 | 19.76831 | 801 ft | 6 kts | 348° |
| 2026-04-30 10:22 | 50.07543 | 19.76829 | 801 ft | 3 kts | 21° |
| 2026-04-30 10:22 | 50.07549 | 19.76860 | 801 ft | 3 kts | 82° |
| 2026-04-30 10:22 | 50.07553 | 19.76895 | 801 ft | 4 kts | 78° |
| 2026-04-30 10:22 | 50.07568 | 19.77010 | 801 ft | 30 kts | 78° |
| 2026-04-30 10:23 | 50.07664 | 19.77705 | 797 ft | 99 kts | 77° |
| 2026-04-30 10:23 | 50.07854 | 19.79062 | 801 ft | 155 kts | 77° |
| 2026-04-30 10:23 | 50.08084 | 19.80815 | 1265 ft | 169 kts | 77° |
| 2026-04-30 10:23 | 50.08329 | 19.82671 | 1948 ft | 178 kts | 74° |
| 2026-04-30 10:24 | 50.08614 | 19.84568 | 2770 ft | 181 kts | 75° |
| 2026-04-30 10:24 | 50.08895 | 19.86526 | 3403 ft | 185 kts | 75° |
| 2026-04-30 10:24 | 50.09168 | 19.88508 | 4034 ft | 191 kts | 74° |
| 2026-04-30 10:24 | 50.09449 | 19.90548 | 4554 ft | 200 kts | 75° |
| 2026-04-30 10:25 | 50.09753 | 19.92741 | 4769 ft | 218 kts | 74° |
| 2026-04-30 10:25 | 50.09919 | 19.95221 | 4941 ft | 239 kts | 98° |
| 2026-04-30 10:25 | 50.09244 | 19.97677 | 5163 ft | 261 kts | 129° |
| 2026-04-30 10:25 | 50.07764 | 19.99333 | 5592 ft | 275 kts | 160° |
| 2026-04-30 10:26 | 50.05877 | 19.99663 | 6295 ft | 276 kts | 189° |
| 2026-04-30 10:26 | 50.04106 | 19.98545 | 6918 ft | 280 kts | 219° |
| 2026-04-30 10:26 | 50.02909 | 19.96182 | 7462 ft | 282 kts | 250° |
| 2026-04-30 10:26 | 50.02355 | 19.93275 | 8116 ft | 282 kts | 261° |
| 2026-04-30 10:27 | 50.01991 | 19.90255 | 8724 ft | 286 kts | 263° |
| 2026-04-30 10:27 | 50.01662 | 19.87185 | 9372 ft | 290 kts | 263° |
| 2026-04-30 10:27 | 50.01325 | 19.84067 | 9990 ft | 295 kts | 263° |
| 2026-04-30 10:27 | 50.00970 | 19.80909 | 10589 ft | 299 kts | 263° |
| 2026-04-30 10:28 | 50.00591 | 19.77637 | 10825 ft | 318 kts | 263° |
| 2026-04-30 10:28 | 50.00176 | 19.74162 | 10988 ft | 337 kts | 262° |
| 2026-04-30 10:28 | 49.99728 | 19.70493 | 11149 ft | 354 kts | 262° |
| 2026-04-30 10:28 | 49.99254 | 19.66689 | 11558 ft | 362 kts | 262° |
| 2026-04-30 10:29 | 49.98621 | 19.62868 | 12105 ft | 370 kts | 251° |
| 2026-04-30 10:29 | 49.97458 | 19.59274 | 12715 ft | 375 kts | 241° |
| 2026-04-30 10:29 | 49.96117 | 19.55779 | 13334 ft | 379 kts | 241° |
| 2026-04-30 10:29 | 49.94744 | 19.52253 | 13917 ft | 384 kts | 240° |
| 2026-04-30 10:30 | 49.93359 | 19.48692 | 14500 ft | 388 kts | 241° |
| 2026-04-30 10:30 | 49.91964 | 19.45087 | 15067 ft | 391 kts | 241° |
| 2026-04-30 10:30 | 49.90563 | 19.41448 | 15645 ft | 395 kts | 241° |
| 2026-04-30 10:30 | 49.89152 | 19.37767 | 16203 ft | 400 kts | 241° |
| 2026-04-30 10:31 | 49.87728 | 19.34044 | 16757 ft | 404 kts | 241° |
| 2026-04-30 10:31 | 49.86288 | 19.30279 | 17356 ft | 407 kts | 241° |
| 2026-04-30 10:31 | 49.84839 | 19.26488 | 17916 ft | 411 kts | 242° |
| 2026-04-30 10:31 | 49.83374 | 19.22660 | 18460 ft | 415 kts | 242° |
| 2026-04-30 10:32 | 49.81893 | 19.18794 | 18973 ft | 419 kts | 242° |
| 2026-04-30 10:32 | 49.80399 | 19.14901 | 19455 ft | 422 kts | 241° |
| 2026-04-30 10:32 | 49.78892 | 19.10982 | 19935 ft | 425 kts | 242° |
| 2026-04-30 10:32 | 49.77372 | 19.07033 | 20409 ft | 429 kts | 241° |
| 2026-04-30 10:33 | 49.75840 | 19.03060 | 20889 ft | 432 kts | 241° |
| 2026-04-30 10:33 | 49.74347 | 18.99193 | 21390 ft | 434 kts | 241° |
| 2026-04-30 10:33 | 49.72797 | 18.95184 | 21859 ft | 436 kts | 241° |
| 2026-04-30 10:33 | 49.71231 | 18.91141 | 22293 ft | 440 kts | 241° |
| 2026-04-30 10:34 | 49.69653 | 18.87070 | 22722 ft | 444 kts | 241° |
| 2026-04-30 10:34 | 49.68057 | 18.82963 | 23140 ft | 447 kts | 241° |
| 2026-04-30 10:34 | 49.66451 | 18.78836 | 23583 ft | 450 kts | 241° |
| 2026-04-30 10:34 | 49.64831 | 18.74677 | 23901 ft | 455 kts | 241° |
| 2026-04-30 10:35 | 49.63184 | 18.70457 | 24140 ft | 462 kts | 241° |
| 2026-04-30 10:35 | 49.61545 | 18.66265 | 24508 ft | 464 kts | 241° |
| 2026-04-30 10:35 | 49.59855 | 18.61950 | 24912 ft | 465 kts | 241° |
| 2026-04-30 10:35 | 49.58198 | 18.57728 | 25237 ft | 468 kts | 241° |
| 2026-04-30 10:36 | 49.56506 | 18.53420 | 25557 ft | 471 kts | 241° |
| 2026-04-30 10:36 | 49.54804 | 18.49094 | 25867 ft | 474 kts | 241° |
| 2026-04-30 10:36 | 49.53088 | 18.44742 | 26183 ft | 477 kts | 241° |
| 2026-04-30 10:36 | 49.51362 | 18.40370 | 26481 ft | 479 kts | 241° |
| 2026-04-30 10:37 | 49.49626 | 18.35979 | 26796 ft | 482 kts | 241° |
| 2026-04-30 10:37 | 49.47878 | 18.31567 | 27087 ft | 484 kts | 241° |
| 2026-04-30 10:37 | 49.46120 | 18.27138 | 27377 ft | 487 kts | 241° |
| 2026-04-30 10:37 | 49.44351 | 18.22687 | 27668 ft | 489 kts | 241° |
| 2026-04-30 10:38 | 49.43149 | 18.19669 | 27852 ft | 491 kts | 241° |
| 2026-04-30 10:38 | 49.41364 | 18.15190 | 28186 ft | 493 kts | 241° |
| 2026-04-30 10:38 | 49.39570 | 18.10695 | 28396 ft | 496 kts | 241° |
| 2026-04-30 10:38 | 49.37753 | 18.06152 | 28488 ft | 502 kts | 241° |
| 2026-04-30 10:39 | 49.35917 | 18.01568 | 28720 ft | 505 kts | 241° |
| 2026-04-30 10:39 | 49.34133 | 17.97122 | 29016 ft | 506 kts | 241° |
| 2026-04-30 10:39 | 49.32286 | 17.92530 | 29397 ft | 506 kts | 241° |
| 2026-04-30 10:39 | 49.30437 | 17.87943 | 29799 ft | 505 kts | 241° |
| 2026-04-30 10:40 | 49.28592 | 17.83373 | 30171 ft | 505 kts | 241° |
| 2026-04-30 10:40 | 49.26744 | 17.78800 | 30497 ft | 505 kts | 241° |
| 2026-04-30 10:40 | 49.24901 | 17.74246 | 30926 ft | 501 kts | 241° |
| 2026-04-30 10:40 | 49.23075 | 17.69747 | 31424 ft | 495 kts | 241° |
| 2026-04-30 10:41 | 49.21260 | 17.65281 | 31764 ft | 494 kts | 240° |
| 2026-04-30 10:41 | 49.19441 | 17.60809 | 31990 ft | 496 kts | 240° |
| 2026-04-30 10:41 | 49.17617 | 17.56330 | 32224 ft | 497 kts | 240° |
| 2026-04-30 10:41 | 49.15791 | 17.51857 | 32539 ft | 495 kts | 240° |
| 2026-04-30 10:42 | 49.13968 | 17.47398 | 32867 ft | 494 kts | 240° |
| 2026-04-30 10:42 | 49.12149 | 17.42959 | 33180 ft | 492 kts | 240° |
| 2026-04-30 10:42 | 49.10334 | 17.38535 | 33471 ft | 492 kts | 240° |
| 2026-04-30 10:42 | 49.08524 | 17.34132 | 33888 ft | 487 kts | 240° |
| 2026-04-30 10:43 | 49.06730 | 17.29776 | 34312 ft | 483 kts | 240° |
| 2026-04-30 10:43 | 49.04941 | 17.25438 | 34460 ft | 485 kts | 240° |
| 2026-04-30 10:43 | 49.01330 | 17.16694 | 34450 ft | 487 kts | 240° |
| 2026-04-30 10:44 | 48.97736 | 17.08029 | 34438 ft | 483 kts | 240° |
| 2026-04-30 10:44 | 48.94205 | 16.99542 | 34437 ft | 481 kts | 240° |
| 2026-04-30 10:45 | 48.90631 | 16.90978 | 34438 ft | 479 kts | 240° |
| 2026-04-30 10:45 | 48.87053 | 16.82430 | 34420 ft | 481 kts | 240° |
| 2026-04-30 10:46 | 48.83427 | 16.73790 | 34450 ft | 489 kts | 240° |
| 2026-04-30 10:46 | 48.79751 | 16.65063 | 34445 ft | 492 kts | 240° |
| 2026-04-30 10:47 | 48.76084 | 16.56384 | 34452 ft | 492 kts | 240° |
| 2026-04-30 10:47 | 48.72385 | 16.47640 | 34427 ft | 492 kts | 240° |
| 2026-04-30 10:48 | 48.68692 | 16.38934 | 34439 ft | 491 kts | 240° |
| 2026-04-30 10:48 | 48.65005 | 16.30267 | 34438 ft | 489 kts | 240° |
| 2026-04-30 10:49 | 48.61326 | 16.21649 | 34431 ft | 487 kts | 240° |
| 2026-04-30 10:49 | 48.57655 | 16.13076 | 34446 ft | 485 kts | 240° |
| 2026-04-30 10:50 | 48.53988 | 16.04539 | 34453 ft | 484 kts | 240° |
| 2026-04-30 10:50 | 48.50378 | 15.96161 | 34455 ft | 484 kts | 239° |
| 2026-04-30 10:51 | 48.46703 | 15.87658 | 34460 ft | 484 kts | 239° |
| 2026-04-30 10:51 | 48.43021 | 15.79168 | 34451 ft | 484 kts | 239° |
| 2026-04-30 10:52 | 48.39332 | 15.70689 | 34451 ft | 484 kts | 239° |
| 2026-04-30 10:52 | 48.35637 | 15.62221 | 34434 ft | 484 kts | 239° |
| 2026-04-30 10:53 | 48.31939 | 15.53773 | 34450 ft | 484 kts | 239° |
| 2026-04-30 10:53 | 48.28229 | 15.45325 | 34459 ft | 485 kts | 239° |
| 2026-04-30 10:54 | 48.24534 | 15.36935 | 34459 ft | 485 kts | 239° |
| 2026-04-30 10:54 | 48.20809 | 15.28504 | 34450 ft | 485 kts | 239° |
| 2026-04-30 10:55 | 48.17081 | 15.20093 | 34453 ft | 484 kts | 239° |
| 2026-04-30 10:55 | 48.13352 | 15.11707 | 34443 ft | 483 kts | 239° |
| 2026-04-30 10:56 | 48.09625 | 15.03352 | 34439 ft | 482 kts | 238° |
| 2026-04-30 10:56 | 48.05963 | 14.95164 | 34433 ft | 481 kts | 238° |
| 2026-04-30 10:57 | 48.02240 | 14.86865 | 34443 ft | 481 kts | 238° |
| 2026-04-30 10:57 | 47.98520 | 14.78599 | 34434 ft | 481 kts | 238° |
| 2026-04-30 10:58 | 47.94786 | 14.70329 | 34435 ft | 481 kts | 238° |
| 2026-04-30 10:58 | 47.91045 | 14.62065 | 34437 ft | 481 kts | 238° |
| 2026-04-30 10:59 | 47.87294 | 14.53808 | 34425 ft | 481 kts | 237° |
| 2026-04-30 10:59 | 47.83561 | 14.45613 | 34409 ft | 482 kts | 237° |
| 2026-04-30 11:00 | 47.79791 | 14.37362 | 34409 ft | 483 kts | 237° |
| 2026-04-30 11:00 | 47.76003 | 14.29095 | 34394 ft | 484 kts | 237° |
| 2026-04-30 11:01 | 47.72206 | 14.20837 | 34381 ft | 484 kts | 237° |
| 2026-04-30 11:01 | 47.68406 | 14.12593 | 34377 ft | 484 kts | 237° |
| 2026-04-30 11:02 | 47.64598 | 14.04361 | 34370 ft | 484 kts | 237° |
| 2026-04-30 11:02 | 47.60845 | 13.96269 | 34349 ft | 483 kts | 237° |
| 2026-04-30 11:03 | 47.57041 | 13.88093 | 34363 ft | 481 kts | 237° |
| 2026-04-30 11:04 | 47.51338 | 13.75879 | 34342 ft | 481 kts | 237° |
| 2026-04-30 11:04 | 47.47529 | 13.67753 | 34331 ft | 480 kts | 237° |
| 2026-04-30 11:05 | 47.43722 | 13.59653 | 34322 ft | 479 kts | 237° |
| 2026-04-30 11:05 | 47.39917 | 13.51584 | 34313 ft | 478 kts | 237° |
| 2026-04-30 11:06 | 47.36121 | 13.43554 | 34327 ft | 477 kts | 237° |
| 2026-04-30 11:06 | 47.32319 | 13.35537 | 34280 ft | 476 kts | 237° |
| 2026-04-30 11:07 | 47.28518 | 13.27543 | 34319 ft | 476 kts | 237° |
| 2026-04-30 11:07 | 47.24708 | 13.19556 | 34291 ft | 478 kts | 237° |
| 2026-04-30 11:08 | 47.20883 | 13.11559 | 34273 ft | 478 kts | 237° |
| 2026-04-30 11:08 | 47.17051 | 13.03573 | 34277 ft | 478 kts | 237° |
| 2026-04-30 11:09 | 47.13279 | 12.95732 | 34275 ft | 477 kts | 237° |
| 2026-04-30 11:09 | 47.09468 | 12.87834 | 34286 ft | 477 kts | 237° |
| 2026-04-30 11:10 | 47.05632 | 12.79905 | 34259 ft | 475 kts | 237° |
| 2026-04-30 11:10 | 47.01803 | 12.72014 | 34263 ft | 475 kts | 237° |
| 2026-04-30 11:11 | 46.97976 | 12.64150 | 34252 ft | 474 kts | 237° |
| 2026-04-30 11:11 | 46.94151 | 12.56311 | 34268 ft | 472 kts | 237° |
| 2026-04-30 11:12 | 46.90328 | 12.48499 | 34278 ft | 472 kts | 237° |
| 2026-04-30 11:12 | 46.86501 | 12.40698 | 34276 ft | 472 kts | 237° |
| 2026-04-30 11:13 | 46.82676 | 12.32921 | 34279 ft | 471 kts | 237° |
| 2026-04-30 11:13 | 46.78840 | 12.25197 | 34285 ft | 469 kts | 236° |
| 2026-04-30 11:14 | 46.74897 | 12.17607 | 34247 ft | 469 kts | 235° |
| 2026-04-30 11:14 | 46.70925 | 12.10056 | 34411 ft | 471 kts | 235° |
| 2026-04-30 11:14 | 46.68951 | 12.06300 | 34578 ft | 471 kts | 235° |
| 2026-04-30 11:15 | 46.66962 | 12.02513 | 34822 ft | 470 kts | 235° |
| 2026-04-30 11:15 | 46.65044 | 11.98858 | 35059 ft | 469 kts | 235° |
| 2026-04-30 11:15 | 46.63071 | 11.95100 | 35264 ft | 467 kts | 235° |
| 2026-04-30 11:16 | 46.59099 | 11.87539 | 35252 ft | 470 kts | 235° |
| 2026-04-30 11:16 | 46.55138 | 11.80021 | 35240 ft | 466 kts | 235° |
| 2026-04-30 11:17 | 46.51234 | 11.72633 | 35245 ft | 462 kts | 235° |
| 2026-04-30 11:17 | 46.47330 | 11.65265 | 35242 ft | 459 kts | 235° |
| 2026-04-30 11:18 | 46.43440 | 11.57941 | 35247 ft | 459 kts | 235° |
| 2026-04-30 11:18 | 46.37532 | 11.46847 | 35277 ft | 467 kts | 235° |
| 2026-04-30 11:19 | 46.33550 | 11.39401 | 35247 ft | 468 kts | 235° |
| 2026-04-30 11:19 | 46.29561 | 11.31963 | 35250 ft | 468 kts | 235° |
| 2026-04-30 11:20 | 46.25572 | 11.24544 | 35253 ft | 466 kts | 235° |
| 2026-04-30 11:20 | 46.21594 | 11.17165 | 35285 ft | 465 kts | 235° |
| 2026-04-30 11:21 | 46.17627 | 11.09825 | 35291 ft | 463 kts | 235° |
| 2026-04-30 11:21 | 46.13665 | 11.02512 | 35282 ft | 462 kts | 235° |
| 2026-04-30 11:22 | 46.09776 | 10.95353 | 35282 ft | 461 kts | 235° |
| 2026-04-30 11:22 | 46.05820 | 10.88090 | 35267 ft | 460 kts | 235° |
| 2026-04-30 11:23 | 46.01871 | 10.80857 | 35279 ft | 459 kts | 235° |
| 2026-04-30 11:24 | 45.95952 | 10.70053 | 35282 ft | 459 kts | 235° |
| 2026-04-30 11:24 | 45.91994 | 10.62849 | 35293 ft | 459 kts | 234° |
| 2026-04-30 11:25 | 45.86714 | 10.53271 | 35305 ft | 460 kts | 235° |
| 2026-04-30 11:26 | 45.78106 | 10.37726 | 35306 ft | 460 kts | 234° |
| 2026-04-30 11:26 | 45.74770 | 10.31725 | 35317 ft | 459 kts | 234° |
| 2026-04-30 11:27 | 45.70785 | 10.24572 | 35299 ft | 459 kts | 234° |
| 2026-04-30 11:27 | 45.66800 | 10.17437 | 35291 ft | 459 kts | 234° |
| 2026-04-30 11:28 | 45.60822 | 10.06769 | 35302 ft | 457 kts | 234° |
| 2026-04-30 11:29 | 45.56899 | 9.99790 | 35309 ft | 457 kts | 234° |
| 2026-04-30 11:29 | 45.50978 | 9.89290 | 35313 ft | 454 kts | 234° |
| 2026-04-30 11:30 | 45.45047 | 9.78810 | 35238 ft | 451 kts | 234° |
| 2026-04-30 11:31 | 45.41109 | 9.71874 | 35214 ft | 449 kts | 234° |
| 2026-04-30 11:31 | 45.37187 | 9.64981 | 35226 ft | 447 kts | 234° |
| 2026-04-30 11:32 | 45.33280 | 9.58133 | 35232 ft | 445 kts | 234° |
| 2026-04-30 11:32 | 45.29383 | 9.51318 | 35237 ft | 443 kts | 234° |
| 2026-04-30 11:33 | 45.23563 | 9.41170 | 35260 ft | 441 kts | 234° |
| 2026-04-30 11:33 | 45.19717 | 9.34486 | 35276 ft | 440 kts | 234° |
| 2026-04-30 11:34 | 45.15852 | 9.27784 | 35261 ft | 439 kts | 234° |
| 2026-04-30 11:34 | 45.11990 | 9.21101 | 35270 ft | 438 kts | 234° |
| 2026-04-30 11:35 | 45.08131 | 9.14440 | 35276 ft | 437 kts | 234° |
| 2026-04-30 11:35 | 45.04271 | 9.07793 | 35284 ft | 437 kts | 234° |
| 2026-04-30 11:36 | 45.00407 | 9.01155 | 35292 ft | 437 kts | 235° |
| 2026-04-30 11:36 | 44.96608 | 8.94645 | 35257 ft | 437 kts | 235° |
| 2026-04-30 11:37 | 44.92746 | 8.88041 | 35258 ft | 436 kts | 235° |
| 2026-04-30 11:37 | 44.88886 | 8.81457 | 35261 ft | 435 kts | 235° |
| 2026-04-30 11:38 | 44.85031 | 8.74895 | 35246 ft | 434 kts | 235° |
| 2026-04-30 11:38 | 44.81188 | 8.68370 | 35261 ft | 432 kts | 235° |
| 2026-04-30 11:39 | 44.77361 | 8.61888 | 35267 ft | 430 kts | 235° |
| 2026-04-30 11:39 | 44.73547 | 8.55441 | 35273 ft | 428 kts | 235° |
| 2026-04-30 11:40 | 44.69747 | 8.49032 | 35281 ft | 426 kts | 235° |
| 2026-04-30 11:40 | 44.65956 | 8.42653 | 35281 ft | 424 kts | 234° |
| 2026-04-30 11:41 | 44.62178 | 8.36309 | 35282 ft | 423 kts | 234° |
| 2026-04-30 11:41 | 44.58401 | 8.29982 | 35288 ft | 422 kts | 234° |
| 2026-04-30 11:42 | 44.54627 | 8.23671 | 35290 ft | 422 kts | 234° |
| 2026-04-30 11:42 | 44.50843 | 8.17359 | 35308 ft | 423 kts | 234° |
| 2026-04-30 11:43 | 44.47047 | 8.11041 | 35306 ft | 425 kts | 234° |
| 2026-04-30 11:43 | 44.43263 | 8.04757 | 35289 ft | 426 kts | 234° |
| 2026-04-30 11:44 | 44.39479 | 7.98487 | 35304 ft | 426 kts | 234° |
| 2026-04-30 11:44 | 44.35673 | 7.92194 | 35296 ft | 427 kts | 233° |
| 2026-04-30 11:45 | 44.31830 | 7.85852 | 35301 ft | 428 kts | 233° |
| 2026-04-30 11:45 | 44.27976 | 7.79508 | 35285 ft | 428 kts | 233° |
| 2026-04-30 11:46 | 44.23726 | 7.73631 | 35285 ft | 432 kts | 225° |
| 2026-04-30 11:46 | 44.19174 | 7.68161 | 35279 ft | 432 kts | 225° |
| 2026-04-30 11:47 | 44.14686 | 7.62603 | 35262 ft | 430 kts | 227° |
| 2026-04-30 11:47 | 44.10697 | 7.56509 | 35246 ft | 424 kts | 233° |
| 2026-04-30 11:48 | 44.06880 | 7.50261 | 35241 ft | 424 kts | 233° |
| 2026-04-30 11:48 | 44.03045 | 7.44058 | 35227 ft | 422 kts | 232° |
| 2026-04-30 11:49 | 43.99195 | 7.37909 | 35228 ft | 421 kts | 232° |
| 2026-04-30 11:49 | 43.95342 | 7.31791 | 35188 ft | 420 kts | 232° |
| 2026-04-30 11:50 | 43.91494 | 7.25695 | 35171 ft | 419 kts | 232° |
| 2026-04-30 11:50 | 43.87661 | 7.19633 | 35164 ft | 418 kts | 232° |
| 2026-04-30 11:51 | 43.83836 | 7.13595 | 35161 ft | 417 kts | 232° |
| 2026-04-30 11:51 | 43.80029 | 7.07597 | 35176 ft | 413 kts | 232° |
| 2026-04-30 11:52 | 43.76227 | 7.01619 | 35156 ft | 414 kts | 232° |
| 2026-04-30 11:52 | 43.72632 | 6.95639 | 35155 ft | 412 kts | 240° |
| 2026-04-30 11:53 | 43.70134 | 6.88568 | 35167 ft | 410 kts | 250° |
| 2026-04-30 11:53 | 43.68020 | 6.81233 | 35149 ft | 412 kts | 250° |
| 2026-04-30 11:54 | 43.65872 | 6.73863 | 35162 ft | 414 kts | 250° |
| 2026-04-30 11:54 | 43.63691 | 6.66477 | 35153 ft | 416 kts | 250° |
| 2026-04-30 11:55 | 43.61494 | 6.59081 | 35152 ft | 417 kts | 249° |
| 2026-04-30 11:55 | 43.59288 | 6.51680 | 35148 ft | 417 kts | 249° |
| 2026-04-30 11:56 | 43.57082 | 6.44297 | 35151 ft | 416 kts | 249° |
| 2026-04-30 11:56 | 43.54874 | 6.36928 | 35152 ft | 416 kts | 249° |
| 2026-04-30 11:57 | 43.52663 | 6.29570 | 35154 ft | 415 kts | 249° |
| 2026-04-30 11:57 | 43.50452 | 6.22232 | 35152 ft | 415 kts | 249° |
| 2026-04-30 11:58 | 43.48239 | 6.14902 | 35150 ft | 414 kts | 249° |
| 2026-04-30 11:58 | 43.46023 | 6.07591 | 35139 ft | 414 kts | 249° |
| 2026-04-30 11:59 | 43.43807 | 6.00293 | 35134 ft | 413 kts | 249° |
| 2026-04-30 11:59 | 43.41626 | 5.93124 | 35128 ft | 412 kts | 249° |
| 2026-04-30 12:00 | 43.39408 | 5.85852 | 35123 ft | 412 kts | 249° |
| 2026-04-30 12:00 | 43.37188 | 5.78593 | 35126 ft | 412 kts | 249° |
| 2026-04-30 12:01 | 43.34961 | 5.71332 | 35111 ft | 412 kts | 249° |
| 2026-04-30 12:01 | 43.32745 | 5.64124 | 35114 ft | 413 kts | 248° |
| 2026-04-30 12:02 | 43.30503 | 5.56852 | 35114 ft | 414 kts | 248° |
| 2026-04-30 12:02 | 43.28252 | 5.49573 | 35130 ft | 414 kts | 249° |
| 2026-04-30 12:03 | 43.24875 | 5.38683 | 35123 ft | 413 kts | 248° |
| 2026-04-30 12:04 | 43.22623 | 5.31456 | 35124 ft | 411 kts | 248° |
| 2026-04-30 12:04 | 43.20365 | 5.24268 | 35127 ft | 410 kts | 248° |
| 2026-04-30 12:05 | 43.18110 | 5.17114 | 35130 ft | 408 kts | 248° |
| 2026-04-30 12:05 | 43.15862 | 5.09991 | 35133 ft | 407 kts | 248° |
| 2026-04-30 12:06 | 43.13615 | 5.02888 | 35140 ft | 406 kts | 248° |
| 2026-04-30 12:06 | 43.11404 | 4.95916 | 35140 ft | 406 kts | 248° |
| 2026-04-30 12:07 | 43.09155 | 4.88841 | 35137 ft | 405 kts | 248° |
| 2026-04-30 12:07 | 43.06891 | 4.81785 | 35141 ft | 405 kts | 245° |
| 2026-04-30 12:08 | 43.03690 | 4.75418 | 35142 ft | 410 kts | 230° |
| 2026-04-30 12:08 | 42.99454 | 4.70148 | 35140 ft | 413 kts | 225° |
| 2026-04-30 12:09 | 42.95122 | 4.64994 | 35139 ft | 413 kts | 225° |
| 2026-04-30 12:09 | 42.90798 | 4.59824 | 35136 ft | 413 kts | 225° |
| 2026-04-30 12:10 | 42.86483 | 4.54644 | 35138 ft | 413 kts | 225° |
| 2026-04-30 12:10 | 42.82166 | 4.49459 | 35139 ft | 413 kts | 225° |
| 2026-04-30 12:11 | 42.77850 | 4.44286 | 35138 ft | 413 kts | 225° |
| 2026-04-30 12:11 | 42.73533 | 4.39121 | 35140 ft | 413 kts | 225° |
| 2026-04-30 12:12 | 42.69244 | 4.34000 | 35138 ft | 413 kts | 225° |
| 2026-04-30 12:12 | 42.64925 | 4.28853 | 35135 ft | 413 kts | 225° |
| 2026-04-30 12:13 | 42.60604 | 4.23714 | 35131 ft | 413 kts | 225° |
| 2026-04-30 12:13 | 42.56286 | 4.18588 | 35134 ft | 412 kts | 225° |
| 2026-04-30 12:14 | 42.51967 | 4.13471 | 35123 ft | 412 kts | 225° |
| 2026-04-30 12:14 | 42.47655 | 4.08372 | 35126 ft | 411 kts | 225° |
| 2026-04-30 12:15 | 42.43353 | 4.03293 | 35126 ft | 410 kts | 225° |
| 2026-04-30 12:15 | 42.39125 | 3.98312 | 35127 ft | 409 kts | 225° |
| 2026-04-30 12:16 | 42.35560 | 3.94118 | 35123 ft | 408 kts | 225° |
| 2026-04-30 12:16 | 42.31283 | 3.89093 | 35120 ft | 407 kts | 226° |
| 2026-04-30 12:17 | 42.25107 | 3.81328 | 35119 ft | 399 kts | 237° |
| 2026-04-30 12:17 | 42.21923 | 3.75243 | 35120 ft | 397 kts | 239° |
| 2026-04-30 12:18 | 42.18747 | 3.69153 | 35123 ft | 397 kts | 238° |
| 2026-04-30 12:18 | 42.15555 | 3.63084 | 35118 ft | 397 kts | 238° |
| 2026-04-30 12:19 | 42.12351 | 3.57022 | 35112 ft | 397 kts | 238° |
| 2026-04-30 12:19 | 42.09141 | 3.50963 | 35121 ft | 397 kts | 238° |
| 2026-04-30 12:20 | 42.05927 | 3.44911 | 35122 ft | 398 kts | 238° |
| 2026-04-30 12:20 | 42.02707 | 3.38858 | 35123 ft | 398 kts | 238° |
| 2026-04-30 12:21 | 41.99486 | 3.32816 | 35122 ft | 398 kts | 238° |
| 2026-04-30 12:21 | 41.96255 | 3.26768 | 35120 ft | 398 kts | 238° |
| 2026-04-30 12:22 | 41.93020 | 3.20723 | 35106 ft | 398 kts | 238° |
| 2026-04-30 12:22 | 41.89788 | 3.14696 | 35111 ft | 397 kts | 238° |
| 2026-04-30 12:23 | 41.86557 | 3.08684 | 35119 ft | 397 kts | 238° |
| 2026-04-30 12:23 | 41.83348 | 3.02722 | 35108 ft | 396 kts | 238° |
| 2026-04-30 12:24 | 41.80173 | 2.96835 | 35108 ft | 396 kts | 238° |
| 2026-04-30 12:24 | 41.76947 | 2.90867 | 35108 ft | 395 kts | 238° |
| 2026-04-30 12:25 | 41.73722 | 2.84909 | 35098 ft | 395 kts | 238° |
| 2026-04-30 12:25 | 41.70502 | 2.78972 | 35098 ft | 394 kts | 238° |
| 2026-04-30 12:26 | 41.67265 | 2.73062 | 35097 ft | 394 kts | 237° |
| 2026-04-30 12:26 | 41.63902 | 2.67280 | 35107 ft | 394 kts | 236° |
| 2026-04-30 12:27 | 41.60520 | 2.61530 | 35107 ft | 393 kts | 236° |
| 2026-04-30 12:27 | 41.57150 | 2.55778 | 35096 ft | 393 kts | 237° |
| 2026-04-30 12:28 | 41.53786 | 2.50026 | 35101 ft | 393 kts | 237° |
| 2026-04-30 12:28 | 41.50419 | 2.44275 | 35093 ft | 393 kts | 237° |
| 2026-04-30 12:29 | 41.47052 | 2.38534 | 35099 ft | 393 kts | 236° |
| 2026-04-30 12:29 | 41.43676 | 2.32788 | 35101 ft | 394 kts | 236° |
| 2026-04-30 12:30 | 41.40292 | 2.27040 | 35102 ft | 394 kts | 236° |
| 2026-04-30 12:30 | 41.36900 | 2.21288 | 35107 ft | 395 kts | 236° |
| 2026-04-30 12:31 | 41.33499 | 2.15531 | 35103 ft | 396 kts | 236° |
| 2026-04-30 12:31 | 41.30065 | 2.09794 | 35095 ft | 397 kts | 234° |
| 2026-04-30 12:32 | 41.26411 | 2.04323 | 35105 ft | 399 kts | 232° |
| 2026-04-30 12:32 | 41.22735 | 1.98959 | 35103 ft | 399 kts | 232° |
| 2026-04-30 12:33 | 41.19011 | 1.93488 | 35103 ft | 399 kts | 232° |
| 2026-04-30 12:33 | 41.15295 | 1.88007 | 35099 ft | 400 kts | 232° |
| 2026-04-30 12:34 | 41.11577 | 1.82526 | 35080 ft | 400 kts | 232° |
| 2026-04-30 12:34 | 41.07855 | 1.77048 | 35085 ft | 400 kts | 232° |
| 2026-04-30 12:35 | 41.04131 | 1.71581 | 35096 ft | 400 kts | 232° |
| 2026-04-30 12:35 | 41.00405 | 1.66115 | 35096 ft | 400 kts | 232° |
| 2026-04-30 12:36 | 40.96678 | 1.60654 | 35095 ft | 400 kts | 232° |
| 2026-04-30 12:36 | 40.92946 | 1.55194 | 35095 ft | 400 kts | 232° |
| 2026-04-30 12:37 | 40.89210 | 1.49735 | 35066 ft | 400 kts | 231° |
| 2026-04-30 12:37 | 40.85469 | 1.44286 | 35088 ft | 400 kts | 231° |
| 2026-04-30 12:38 | 40.81720 | 1.38848 | 35097 ft | 400 kts | 231° |
| 2026-04-30 12:38 | 40.77965 | 1.33412 | 35092 ft | 401 kts | 231° |
| 2026-04-30 12:39 | 40.74209 | 1.27979 | 35089 ft | 401 kts | 231° |
| 2026-04-30 12:39 | 40.70442 | 1.22543 | 35092 ft | 401 kts | 231° |
| 2026-04-30 12:40 | 40.66675 | 1.17107 | 35097 ft | 402 kts | 231° |
| 2026-04-30 12:40 | 40.62908 | 1.11675 | 35092 ft | 402 kts | 231° |
| 2026-04-30 12:41 | 40.59135 | 1.06242 | 35095 ft | 402 kts | 231° |
| 2026-04-30 12:41 | 40.55359 | 1.00819 | 35089 ft | 402 kts | 231° |
| 2026-04-30 12:42 | 40.51631 | 0.95485 | 35096 ft | 402 kts | 231° |
| 2026-04-30 12:42 | 40.47845 | 0.90086 | 35093 ft | 402 kts | 231° |
| 2026-04-30 12:43 | 40.44058 | 0.84691 | 35085 ft | 402 kts | 231° |
| 2026-04-30 12:43 | 40.40295 | 0.79339 | 35089 ft | 402 kts | 230° |
| 2026-04-30 12:44 | 40.36504 | 0.73955 | 35086 ft | 402 kts | 230° |
| 2026-04-30 12:44 | 40.32707 | 0.68572 | 35087 ft | 402 kts | 230° |
| 2026-04-30 12:45 | 40.28904 | 0.63188 | 35089 ft | 403 kts | 230° |
| 2026-04-30 12:45 | 40.25097 | 0.57812 | 35070 ft | 403 kts | 230° |
| 2026-04-30 12:46 | 40.21278 | 0.52435 | 35081 ft | 403 kts | 230° |
| 2026-04-30 12:46 | 40.17453 | 0.47058 | 35085 ft | 404 kts | 230° |
| 2026-04-30 12:47 | 40.13618 | 0.41673 | 35079 ft | 405 kts | 230° |
| 2026-04-30 12:47 | 40.09775 | 0.36287 | 35078 ft | 406 kts | 229° |
| 2026-04-30 12:48 | 40.05922 | 0.30895 | 35089 ft | 406 kts | 229° |
| 2026-04-30 12:48 | 40.02057 | 0.25495 | 35067 ft | 407 kts | 229° |
| 2026-04-30 12:49 | 39.98192 | 0.20103 | 35078 ft | 408 kts | 229° |
| 2026-04-30 12:49 | 39.94319 | 0.14698 | 35080 ft | 408 kts | 229° |
| 2026-04-30 12:50 | 39.90441 | 0.09292 | 35076 ft | 408 kts | 229° |
| 2026-04-30 12:50 | 39.86558 | 0.03889 | 35081 ft | 409 kts | 229° |
| 2026-04-30 12:51 | 39.82729 | -0.01428 | 35080 ft | 409 kts | 228° |
| 2026-04-30 12:51 | 39.78832 | -0.06813 | 35064 ft | 409 kts | 228° |
| 2026-04-30 12:52 | 39.74959 | -0.12154 | 35070 ft | 409 kts | 228° |
| 2026-04-30 12:52 | 39.71060 | -0.17526 | 35066 ft | 409 kts | 228° |
| 2026-04-30 12:53 | 39.67128 | -0.22935 | 35060 ft | 409 kts | 228° |
| 2026-04-30 12:53 | 39.63247 | -0.28264 | 35053 ft | 409 kts | 228° |
| 2026-04-30 12:54 | 39.59308 | -0.33664 | 35048 ft | 409 kts | 228° |
| 2026-04-30 12:54 | 39.55422 | -0.38983 | 35052 ft | 409 kts | 227° |
| 2026-04-30 12:55 | 39.51507 | -0.44333 | 35048 ft | 409 kts | 227° |
| 2026-04-30 12:55 | 39.47656 | -0.49750 | 35043 ft | 408 kts | 232° |
| 2026-04-30 12:56 | 39.44229 | -0.55599 | 35047 ft | 408 kts | 234° |
| 2026-04-30 12:56 | 39.40843 | -0.61486 | 35053 ft | 408 kts | 233° |
| 2026-04-30 12:57 | 39.37429 | -0.67337 | 35062 ft | 407 kts | 233° |
| 2026-04-30 12:57 | 39.33999 | -0.73166 | 35046 ft | 407 kts | 233° |
| 2026-04-30 12:58 | 39.30565 | -0.78987 | 35061 ft | 407 kts | 232° |
| 2026-04-30 12:58 | 39.27129 | -0.84801 | 35048 ft | 408 kts | 232° |
| 2026-04-30 12:59 | 39.23684 | -0.90614 | 35054 ft | 408 kts | 232° |
| 2026-04-30 12:59 | 39.20256 | -0.96383 | 35054 ft | 408 kts | 232° |
| 2026-04-30 13:00 | 39.16853 | -1.02105 | 35056 ft | 409 kts | 232° |
| 2026-04-30 13:00 | 39.13387 | -1.07922 | 35053 ft | 409 kts | 232° |
| 2026-04-30 13:01 | 39.09915 | -1.13739 | 35049 ft | 409 kts | 232° |
| 2026-04-30 13:01 | 39.06440 | -1.19553 | 35051 ft | 410 kts | 232° |
| 2026-04-30 13:02 | 39.02960 | -1.25363 | 35056 ft | 410 kts | 232° |
| 2026-04-30 13:02 | 38.99477 | -1.31173 | 35058 ft | 411 kts | 232° |
| 2026-04-30 13:03 | 38.95990 | -1.36988 | 35061 ft | 411 kts | 232° |
| 2026-04-30 13:03 | 38.92499 | -1.42801 | 35068 ft | 411 kts | 232° |
| 2026-04-30 13:04 | 38.89007 | -1.48607 | 35072 ft | 411 kts | 232° |
| 2026-04-30 13:04 | 38.86101 | -1.53429 | 35092 ft | 411 kts | 231° |
| 2026-04-30 13:05 | 38.82603 | -1.59225 | 35073 ft | 411 kts | 231° |
| 2026-04-30 13:06 | 38.77357 | -1.67898 | 35080 ft | 410 kts | 231° |
| 2026-04-30 13:06 | 38.73862 | -1.73666 | 35080 ft | 409 kts | 231° |
| 2026-04-30 13:07 | 38.70366 | -1.79418 | 35078 ft | 409 kts | 231° |
| 2026-04-30 13:07 | 38.66868 | -1.85157 | 35063 ft | 409 kts | 231° |
| 2026-04-30 13:08 | 38.63372 | -1.90886 | 35060 ft | 408 kts | 231° |
| 2026-04-30 13:08 | 38.59874 | -1.96609 | 35066 ft | 408 kts | 231° |
| 2026-04-30 13:09 | 38.56428 | -2.02240 | 35067 ft | 408 kts | 231° |
| 2026-04-30 13:09 | 38.52926 | -2.07951 | 35069 ft | 408 kts | 231° |
| 2026-04-30 13:10 | 38.49423 | -2.13656 | 35070 ft | 408 kts | 231° |
| 2026-04-30 13:10 | 38.45916 | -2.19364 | 35060 ft | 409 kts | 231° |
| 2026-04-30 13:11 | 38.42409 | -2.25067 | 35072 ft | 409 kts | 231° |
| 2026-04-30 13:11 | 38.38893 | -2.30774 | 35079 ft | 409 kts | 230° |
| 2026-04-30 13:12 | 38.35329 | -2.36424 | 35077 ft | 408 kts | 226° |
| 2026-04-30 13:12 | 38.31441 | -2.41691 | 35075 ft | 408 kts | 225° |
| 2026-04-30 13:13 | 38.25535 | -2.49505 | 35070 ft | 408 kts | 225° |
| 2026-04-30 13:14 | 38.19680 | -2.57321 | 35070 ft | 409 kts | 225° |
| 2026-04-30 13:14 | 38.13795 | -2.65181 | 35056 ft | 409 kts | 225° |
| 2026-04-30 13:15 | 38.07909 | -2.73026 | 35064 ft | 409 kts | 225° |
| 2026-04-30 13:16 | 38.03987 | -2.78241 | 35070 ft | 408 kts | 225° |
| 2026-04-30 13:16 | 38.00062 | -2.83452 | 35066 ft | 408 kts | 225° |
| 2026-04-30 13:17 | 37.94183 | -2.91237 | 35052 ft | 407 kts | 225° |
| 2026-04-30 13:18 | 37.88298 | -2.98975 | 35039 ft | 406 kts | 225° |
| 2026-04-30 13:18 | 37.82483 | -3.06606 | 35055 ft | 405 kts | 224° |
| 2026-04-30 13:19 | 37.78562 | -3.11745 | 35048 ft | 406 kts | 224° |
| 2026-04-30 13:19 | 37.74640 | -3.16876 | 35033 ft | 405 kts | 224° |
| 2026-04-30 13:20 | 37.70726 | -3.21997 | 35034 ft | 405 kts | 225° |
| 2026-04-30 13:20 | 37.66825 | -3.27110 | 35037 ft | 404 kts | 225° |
| 2026-04-30 13:21 | 37.62935 | -3.32204 | 35031 ft | 402 kts | 225° |
| 2026-04-30 13:22 | 37.57116 | -3.39805 | 35042 ft | 400 kts | 225° |
| 2026-04-30 13:22 | 37.51316 | -3.47363 | 35040 ft | 400 kts | 224° |
| 2026-04-30 13:23 | 37.45518 | -3.54902 | 35044 ft | 400 kts | 224° |
| 2026-04-30 13:24 | 37.37771 | -3.64939 | 35047 ft | 399 kts | 225° |
| 2026-04-30 13:25 | 37.30041 | -3.74914 | 35039 ft | 397 kts | 224° |
| 2026-04-30 13:26 | 37.20433 | -3.87271 | 35059 ft | 396 kts | 224° |
| 2026-04-30 13:28 | 37.10793 | -3.99623 | 35047 ft | 396 kts | 224° |
| 2026-04-30 13:28 | 37.05079 | -4.06922 | 35041 ft | 395 kts | 224° |
| 2026-04-30 13:29 | 36.97404 | -4.16701 | 35044 ft | 393 kts | 224° |
| 2026-04-30 13:31 | 36.87816 | -4.28876 | 35036 ft | 391 kts | 224° |
| 2026-04-30 13:32 | 36.77761 | -4.39960 | 35052 ft | 384 kts | 212° |
| 2026-04-30 13:33 | 36.68732 | -4.47058 | 35049 ft | 383 kts | 213° |
| 2026-04-30 13:34 | 36.61999 | -4.52383 | 35051 ft | 382 kts | 213° |
| 2026-04-30 13:35 | 36.53015 | -4.59480 | 35039 ft | 383 kts | 213° |
| 2026-04-30 13:36 | 36.44005 | -4.66579 | 35048 ft | 386 kts | 213° |
| 2026-04-30 13:36 | 36.37180 | -4.71942 | 35048 ft | 388 kts | 212° |
| 2026-04-30 13:37 | 36.30329 | -4.77315 | 35053 ft | 389 kts | 212° |
| 2026-04-30 13:38 | 36.23467 | -4.82686 | 35059 ft | 389 kts | 212° |
| 2026-04-30 13:39 | 36.14326 | -4.89826 | 35048 ft | 388 kts | 212° |
| 2026-04-30 13:40 | 36.07520 | -4.95230 | 35066 ft | 387 kts | 212° |
| 2026-04-30 13:40 | 36.02986 | -4.98833 | 35071 ft | 388 kts | 212° |
| 2026-04-30 13:41 | 35.98520 | -5.02373 | 35069 ft | 388 kts | 212° |
| 2026-04-30 13:41 | 35.93974 | -5.05971 | 35071 ft | 388 kts | 212° |
| 2026-04-30 13:42 | 35.89426 | -5.09565 | 35074 ft | 389 kts | 212° |
| 2026-04-30 13:42 | 35.82610 | -5.14995 | 35051 ft | 389 kts | 215° |
| 2026-04-30 13:43 | 35.78260 | -5.18969 | 35050 ft | 389 kts | 216° |
| 2026-04-30 13:43 | 35.73938 | -5.22991 | 35047 ft | 390 kts | 216° |
| 2026-04-30 13:44 | 35.69592 | -5.27015 | 35053 ft | 393 kts | 216° |
| 2026-04-30 13:44 | 35.65205 | -5.31056 | 35055 ft | 395 kts | 216° |
| 2026-04-30 13:45 | 35.58626 | -5.37096 | 35044 ft | 394 kts | 216° |
| 2026-04-30 13:46 | 35.54250 | -5.41105 | 35040 ft | 391 kts | 216° |
| 2026-04-30 13:46 | 35.49897 | -5.45087 | 35051 ft | 389 kts | 216° |
| 2026-04-30 13:47 | 35.45557 | -5.49051 | 35046 ft | 388 kts | 216° |
| 2026-04-30 13:47 | 35.41228 | -5.52999 | 35049 ft | 387 kts | 216° |
| 2026-04-30 13:48 | 35.36911 | -5.56931 | 35035 ft | 387 kts | 216° |
| 2026-04-30 13:48 | 35.32585 | -5.60867 | 35039 ft | 388 kts | 216° |
| 2026-04-30 13:49 | 35.28247 | -5.64808 | 35049 ft | 389 kts | 216° |
| 2026-04-30 13:49 | 35.23895 | -5.68755 | 35054 ft | 390 kts | 216° |
| 2026-04-30 13:50 | 35.19516 | -5.72723 | 35062 ft | 393 kts | 216° |
| 2026-04-30 13:50 | 35.12897 | -5.78711 | 35056 ft | 396 kts | 216° |
| 2026-04-30 13:51 | 35.08470 | -5.82708 | 35044 ft | 396 kts | 215° |
| 2026-04-30 13:51 | 35.04790 | -5.86025 | 35052 ft | 395 kts | 215° |
| 2026-04-30 13:52 | 35.00366 | -5.90009 | 35059 ft | 395 kts | 215° |
| 2026-04-30 13:52 | 34.95949 | -5.93981 | 35057 ft | 395 kts | 215° |
| 2026-04-30 13:53 | 34.91534 | -5.97947 | 35062 ft | 394 kts | 215° |
| 2026-04-30 13:53 | 34.87189 | -6.01844 | 35060 ft | 394 kts | 215° |
| 2026-04-30 13:54 | 34.82780 | -6.05793 | 35052 ft | 394 kts | 215° |
| 2026-04-30 13:54 | 34.78367 | -6.09740 | 35076 ft | 394 kts | 215° |
| 2026-04-30 13:55 | 34.73948 | -6.13688 | 35071 ft | 394 kts | 215° |
| 2026-04-30 13:55 | 34.69521 | -6.17636 | 35069 ft | 395 kts | 215° |
| 2026-04-30 13:56 | 34.65087 | -6.21587 | 35065 ft | 395 kts | 215° |
| 2026-04-30 13:56 | 34.60647 | -6.25536 | 35072 ft | 396 kts | 215° |
| 2026-04-30 13:57 | 34.56198 | -6.29489 | 35058 ft | 397 kts | 214° |
| 2026-04-30 13:57 | 34.51741 | -6.33443 | 35072 ft | 397 kts | 214° |
| 2026-04-30 13:58 | 34.45037 | -6.39381 | 35080 ft | 399 kts | 214° |
| 2026-04-30 13:59 | 34.40551 | -6.43348 | 35085 ft | 400 kts | 214° |
| 2026-04-30 13:59 | 34.36056 | -6.47317 | 35102 ft | 400 kts | 215° |
| 2026-04-30 14:00 | 34.31578 | -6.51266 | 35086 ft | 401 kts | 216° |
| 2026-04-30 14:00 | 34.24802 | -6.57231 | 35081 ft | 402 kts | 215° |
| 2026-04-30 14:01 | 34.20279 | -6.61207 | 35082 ft | 402 kts | 215° |
| 2026-04-30 14:01 | 34.15749 | -6.65183 | 35077 ft | 403 kts | 215° |
| 2026-04-30 14:02 | 34.11219 | -6.69155 | 35076 ft | 402 kts | 215° |
| 2026-04-30 14:02 | 34.06688 | -6.73121 | 35077 ft | 402 kts | 215° |
| 2026-04-30 14:03 | 34.02131 | -6.77026 | 35065 ft | 402 kts | 213° |
| 2026-04-30 14:03 | 33.97513 | -6.80805 | 35076 ft | 402 kts | 213° |
| 2026-04-30 14:04 | 33.92883 | -6.84582 | 35093 ft | 402 kts | 214° |
| 2026-04-30 14:04 | 33.88248 | -6.88374 | 35082 ft | 404 kts | 215° |
| 2026-04-30 14:05 | 33.83597 | -6.92187 | 35082 ft | 405 kts | 215° |
| 2026-04-30 14:05 | 33.78950 | -6.95993 | 35072 ft | 408 kts | 215° |
| 2026-04-30 14:06 | 33.71959 | -7.01710 | 35072 ft | 410 kts | 215° |
| 2026-04-30 14:07 | 33.64863 | -7.07500 | 35074 ft | 411 kts | 215° |
| 2026-04-30 14:08 | 33.57760 | -7.13284 | 35079 ft | 411 kts | 215° |
| 2026-04-30 14:08 | 33.50628 | -7.19081 | 35063 ft | 414 kts | 215° |
| 2026-04-30 14:09 | 33.45873 | -7.22938 | 35054 ft | 412 kts | 216° |
| 2026-04-30 14:10 | 33.38776 | -7.28687 | 35057 ft | 410 kts | 216° |
| 2026-04-30 14:10 | 33.34052 | -7.32508 | 35060 ft | 410 kts | 216° |
| 2026-04-30 14:11 | 33.29325 | -7.36326 | 35053 ft | 411 kts | 216° |
| 2026-04-30 14:11 | 33.24582 | -7.40151 | 35050 ft | 412 kts | 216° |
| 2026-04-30 14:12 | 33.19827 | -7.43982 | 35047 ft | 413 kts | 216° |
| 2026-04-30 14:12 | 33.15054 | -7.47823 | 35052 ft | 414 kts | 216° |
| 2026-04-30 14:13 | 33.10243 | -7.51624 | 35057 ft | 416 kts | 213° |
| 2026-04-30 14:13 | 33.05252 | -7.55141 | 35056 ft | 417 kts | 212° |
| 2026-04-30 14:14 | 33.00261 | -7.58590 | 35046 ft | 418 kts | 212° |
| 2026-04-30 14:14 | 32.95250 | -7.62091 | 35042 ft | 418 kts | 212° |
| 2026-04-30 14:15 | 32.90234 | -7.65612 | 35039 ft | 419 kts | 212° |
| 2026-04-30 14:15 | 32.85214 | -7.69128 | 35046 ft | 419 kts | 212° |
| 2026-04-30 14:16 | 32.80184 | -7.72649 | 35048 ft | 420 kts | 212° |
| 2026-04-30 14:16 | 32.75149 | -7.76171 | 35040 ft | 420 kts | 212° |
| 2026-04-30 14:17 | 32.70113 | -7.79690 | 35044 ft | 420 kts | 212° |
| 2026-04-30 14:17 | 32.65077 | -7.83204 | 35043 ft | 420 kts | 212° |
| 2026-04-30 14:18 | 32.60042 | -7.86714 | 35044 ft | 419 kts | 213° |
| 2026-04-30 14:18 | 32.52500 | -7.91962 | 35046 ft | 419 kts | 213° |
| 2026-04-30 14:19 | 32.44968 | -7.97193 | 35049 ft | 418 kts | 213° |
| 2026-04-30 14:20 | 32.40022 | -8.00623 | 35045 ft | 418 kts | 213° |
| 2026-04-30 14:20 | 32.32498 | -8.05832 | 35046 ft | 417 kts | 213° |
| 2026-04-30 14:21 | 32.27487 | -8.09296 | 35051 ft | 417 kts | 212° |
| 2026-04-30 14:22 | 32.19968 | -8.14486 | 35051 ft | 417 kts | 212° |
| 2026-04-30 14:22 | 32.12626 | -8.19948 | 35053 ft | 414 kts | 223° |
| 2026-04-30 14:23 | 32.05341 | -8.30336 | 35054 ft | 411 kts | 234° |
| 2026-04-30 14:24 | 32.00102 | -8.38365 | 35052 ft | 412 kts | 234° |
| 2026-04-30 14:25 | 31.93061 | -8.49044 | 35052 ft | 414 kts | 234° |
| 2026-04-30 14:26 | 31.87777 | -8.57024 | 35048 ft | 414 kts | 234° |
| 2026-04-30 14:27 | 31.82463 | -8.65034 | 35045 ft | 414 kts | 234° |
| 2026-04-30 14:27 | 31.78915 | -8.70373 | 35044 ft | 414 kts | 234° |
| 2026-04-30 14:28 | 31.73595 | -8.78366 | 35041 ft | 414 kts | 236° |
| 2026-04-30 14:28 | 31.70039 | -8.83698 | 35047 ft | 415 kts | 236° |
| 2026-04-30 14:29 | 31.63508 | -8.93473 | 35063 ft | 419 kts | 236° |
| 2026-04-30 14:30 | 31.57520 | -9.02415 | 35843 ft | 419 kts | 236° |
| 2026-04-30 14:31 | 31.53919 | -9.07776 | 36352 ft | 419 kts | 236° |
| 2026-04-30 14:31 | 31.50296 | -9.13170 | 36581 ft | 424 kts | 238° |
| 2026-04-30 14:31 | 31.48470 | -9.15886 | 36809 ft | 423 kts | 238° |
| 2026-04-30 14:32 | 31.44823 | -9.21301 | 37028 ft | 425 kts | 238° |
| 2026-04-30 14:32 | 31.42991 | -9.24019 | 37059 ft | 426 kts | 238° |
| 2026-04-30 14:33 | 31.39337 | -9.29431 | 37044 ft | 421 kts | 238° |
| 2026-04-30 14:33 | 31.33913 | -9.37450 | 37053 ft | 417 kts | 238° |
| 2026-04-30 14:34 | 31.30318 | -9.42761 | 37069 ft | 416 kts | 238° |
| 2026-04-30 14:34 | 31.27335 | -9.47162 | 37049 ft | 415 kts | 239° |
| 2026-04-30 14:35 | 31.21345 | -9.55985 | 37070 ft | 416 kts | 239° |
| 2026-04-30 14:36 | 31.17736 | -9.61291 | 37072 ft | 418 kts | 239° |
| 2026-04-30 14:36 | 31.14106 | -9.66617 | 37076 ft | 419 kts | 239° |
| 2026-04-30 14:37 | 31.10466 | -9.71953 | 37078 ft | 421 kts | 239° |
| 2026-04-30 14:37 | 31.06809 | -9.77307 | 37082 ft | 423 kts | 239° |
| 2026-04-30 14:38 | 31.03134 | -9.82681 | 37074 ft | 425 kts | 239° |
| 2026-04-30 14:38 | 30.99449 | -9.88058 | 37079 ft | 425 kts | 239° |
| 2026-04-30 14:39 | 30.96380 | -9.92529 | 37079 ft | 425 kts | 239° |
| 2026-04-30 14:39 | 30.92090 | -9.98774 | 37082 ft | 424 kts | 239° |
| 2026-04-30 14:40 | 30.87218 | -10.05853 | 37084 ft | 423 kts | 239° |
| 2026-04-30 14:40 | 30.83544 | -10.11184 | 37073 ft | 421 kts | 239° |
| 2026-04-30 14:41 | 30.79880 | -10.16493 | 37083 ft | 420 kts | 239° |
| 2026-04-30 14:41 | 30.76228 | -10.21779 | 37067 ft | 419 kts | 239° |
| 2026-04-30 14:42 | 30.72580 | -10.27051 | 37077 ft | 418 kts | 239° |
| 2026-04-30 14:42 | 30.68941 | -10.32304 | 37093 ft | 417 kts | 239° |
| 2026-04-30 14:43 | 30.65301 | -10.37551 | 37090 ft | 417 kts | 239° |
| 2026-04-30 14:43 | 30.61660 | -10.42792 | 37093 ft | 417 kts | 239° |
| 2026-04-30 14:44 | 30.58015 | -10.48033 | 37093 ft | 417 kts | 239° |
| 2026-04-30 14:44 | 30.54364 | -10.53275 | 37094 ft | 418 kts | 239° |
| 2026-04-30 14:45 | 30.50731 | -10.58483 | 37067 ft | 418 kts | 239° |
| 2026-04-30 14:45 | 30.47076 | -10.63716 | 37087 ft | 418 kts | 239° |
| 2026-04-30 14:46 | 30.43416 | -10.68949 | 37093 ft | 418 kts | 239° |
| 2026-04-30 14:46 | 30.39751 | -10.74184 | 37099 ft | 418 kts | 239° |
| 2026-04-30 14:47 | 30.36085 | -10.79411 | 37093 ft | 418 kts | 239° |
| 2026-04-30 14:47 | 30.32415 | -10.84638 | 37092 ft | 418 kts | 239° |
| 2026-04-30 14:48 | 30.28746 | -10.89857 | 37099 ft | 418 kts | 239° |
| 2026-04-30 14:48 | 30.25077 | -10.95069 | 37092 ft | 418 kts | 239° |
| 2026-04-30 14:49 | 30.21465 | -11.00193 | 37103 ft | 417 kts | 239° |
| 2026-04-30 14:49 | 30.17804 | -11.05380 | 37106 ft | 416 kts | 239° |
| 2026-04-30 14:50 | 30.12324 | -11.13131 | 37109 ft | 415 kts | 238° |
| 2026-04-30 14:51 | 30.06850 | -11.20860 | 37108 ft | 414 kts | 238° |
| 2026-04-30 14:52 | 30.01381 | -11.28566 | 37111 ft | 413 kts | 238° |
| 2026-04-30 14:52 | 29.95946 | -11.36211 | 37101 ft | 412 kts | 238° |
| 2026-04-30 14:53 | 29.90463 | -11.43907 | 37114 ft | 412 kts | 238° |
| 2026-04-30 14:54 | 29.83191 | -11.54093 | 37110 ft | 411 kts | 238° |
| 2026-04-30 14:55 | 29.77761 | -11.61682 | 37110 ft | 411 kts | 238° |
| 2026-04-30 14:56 | 29.70481 | -11.71834 | 37110 ft | 411 kts | 238° |
| 2026-04-30 14:57 | 29.65011 | -11.79444 | 37110 ft | 412 kts | 238° |
| 2026-04-30 14:58 | 29.57709 | -11.89582 | 37111 ft | 412 kts | 238° |
| 2026-04-30 14:58 | 29.52229 | -11.97173 | 37106 ft | 411 kts | 238° |
| 2026-04-30 15:00 | 29.43151 | -12.09717 | 37107 ft | 411 kts | 238° |
| 2026-04-30 15:01 | 29.35857 | -12.19768 | 37121 ft | 409 kts | 238° |
| 2026-04-30 15:01 | 29.30393 | -12.27282 | 37111 ft | 408 kts | 238° |
| 2026-04-30 15:02 | 29.26756 | -12.32275 | 37117 ft | 408 kts | 238° |
| 2026-04-30 15:03 | 29.17705 | -12.44676 | 37108 ft | 406 kts | 238° |
| 2026-04-30 15:04 | 29.08642 | -12.57058 | 37116 ft | 406 kts | 238° |
| 2026-04-30 15:06 | 28.99567 | -12.69418 | 37118 ft | 407 kts | 238° |
| 2026-04-30 15:07 | 28.92284 | -12.79314 | 37079 ft | 407 kts | 238° |
| 2026-04-30 15:07 | 28.89003 | -12.84473 | 37126 ft | 396 kts | 247° |
| 2026-04-30 15:08 | 28.86383 | -12.89992 | 37120 ft | 395 kts | 249° |
| 2026-04-30 15:09 | 28.79854 | -13.03736 | 37118 ft | 398 kts | 248° |
| 2026-04-30 15:10 | 28.74481 | -13.14779 | 37110 ft | 399 kts | 248° |
| 2026-04-30 15:11 | 28.66390 | -13.31336 | 37115 ft | 399 kts | 248° |
| 2026-04-30 15:13 | 28.59637 | -13.45107 | 37114 ft | 398 kts | 247° |
| 2026-04-30 15:14 | 28.50207 | -13.64258 | 37112 ft | 396 kts | 247° |
| 2026-04-30 15:17 | 28.38061 | -13.88797 | 37102 ft | 395 kts | 247° |
| 2026-04-30 15:19 | 28.27281 | -14.10457 | 37104 ft | 395 kts | 247° |